Terminal Aerodrome Forecast
Issued by NWS Charleston, WV

Current Version | Previous Version | Graphics & Text | Print | Product List | Glossary On
Versions: 1 2 3 4 5 6 7 8 9 10 11 12 13 14 15 16 17 18 19 20 21 22 23
000
FTUS41 KRLX 082000 AAB
TAFCRW
TAF AMD
KCRW 082039Z 0821/0918 25013G20KT P6SM VCTS BKN045CB
     FM090000 24011G17KT P6SM VCSH OVC040
     FM090100 24010G15KT P6SM BKN050
     FM090300 23006KT P6SM BKN060
     FM090700 23003KT 3SM BR SCT090
     FM091200 24007KT P6SM BKN070=

USA.gov is the U.S. government's official web portal to all federal, state and local government web resources and services.